sensor_id;sensor_type;location;lat;lon;timestamp;P1;durP1;ratioP1;P2;durP2;ratioP2
60098;SDS011;62818;49.394;8.686;2022-12-18T00:01:00;96.90;;;48.97;;
60098;SDS011;62818;49.394;8.686;2022-12-18T00:02:07;99.60;;;50.90;;
60098;SDS011;62818;49.394;8.686;2022-12-18T00:03:08;104.53;;;52.43;;
60098;SDS011;62818;49.394;8.686;2022-12-18T00:04:15;104.00;;;51.45;;
60098;SDS011;62818;49.394;8.686;2022-12-18T00:05:26;111.47;;;52.30;;
60098;SDS011;62818;49.394;8.686;2022-12-18T00:06:27;107.40;;;50.80;;
60098;SDS011;62818;49.394;8.686;2022-12-18T00:07:29;99.25;;;52.67;;
60098;SDS011;62818;49.394;8.686;2022-12-18T00:08:30;106.97;;;52.63;;
60098;SDS011;62818;49.394;8.686;2022-12-18T00:09:33;103.60;;;49.60;;
60098;SDS011;62818;49.394;8.686;2022-12-18T00:10:34;108.38;;;53.17;;
60098;SDS011;62818;49.394;8.686;2022-12-18T00:11:34;103.50;;;52.20;;
60098;SDS011;62818;49.394;8.686;2022-12-18T00:12:37;104.93;;;53.53;;
60098;SDS011;62818;49.394;8.686;2022-12-18T00:13:38;99.03;;;52.83;;
60098;SDS011;62818;49.394;8.686;2022-12-18T00:14:43;103.05;;;53.08;;
60098;SDS011;62818;49.394;8.686;2022-12-18T00:15:44;103.60;;;51.80;;
60098;SDS011;62818;49.394;8.686;2022-12-18T00:16:47;97.75;;;50.95;;
60098;SDS011;62818;49.394;8.686;2022-12-18T00:17:50;99.18;;;50.92;;
60098;SDS011;62818;49.394;8.686;2022-12-18T00:18:52;99.73;;;51.60;;
60098;SDS011;62818;49.394;8.686;2022-12-18T00:19:56;116.43;;;52.90;;
60098;SDS011;62818;49.394;8.686;2022-12-18T00:21:04;96.83;;;49.37;;
60098;SDS011;62818;49.394;8.686;2022-12-18T00:22:08;101.68;;;52.42;;
60098;SDS011;62818;49.394;8.686;2022-12-18T00:23:08;100.70;;;50.60;;
60098;SDS011;62818;49.394;8.686;2022-12-18T00:24:12;100.03;;;51.17;;
60098;SDS011;62818;49.394;8.686;2022-12-18T00:25:12;104.37;;;50.47;;
60098;SDS011;62818;49.394;8.686;2022-12-18T00:26:20;109.78;;;52.00;;
60098;SDS011;62818;49.394;8.686;2022-12-18T00:27:25;103.22;;;50.38;;
60098;SDS011;62818;49.394;8.686;2022-12-18T00:28:25;103.47;;;51.27;;
60098;SDS011;62818;49.394;8.686;2022-12-18T00:29:28;89.50;;;46.78;;
60098;SDS011;62818;49.394;8.686;2022-12-18T00:30:29;100.45;;;49.88;;
60098;SDS011;62818;49.394;8.686;2022-12-18T00:31:30;95.93;;;47.50;;
60098;SDS011;62818;49.394;8.686;2022-12-18T00:32:31;100.80;;;51.03;;
60098;SDS011;62818;49.394;8.686;2022-12-18T00:33:33;97.32;;;50.25;;
60098;SDS011;62818;49.394;8.686;2022-12-18T00:34:34;95.72;;;48.80;;
60098;SDS011;62818;49.394;8.686;2022-12-18T00:35:37;102.55;;;50.10;;
60098;SDS011;62818;49.394;8.686;2022-12-18T00:36:38;95.20;;;46.93;;
60098;SDS011;62818;49.394;8.686;2022-12-18T00:37:42;94.28;;;48.75;;
60098;SDS011;62818;49.394;8.686;2022-12-18T00:38:45;103.20;;;50.35;;
60098;SDS011;62818;49.394;8.686;2022-12-18T00:39:47;94.10;;;49.70;;
60098;SDS011;62818;49.394;8.686;2022-12-18T00:40:48;95.13;;;48.38;;
60098;SDS011;62818;49.394;8.686;2022-12-18T00:41:50;98.13;;;46.92;;
60098;SDS011;62818;49.394;8.686;2022-12-18T00:43:09;93.25;;;47.10;;
60098;SDS011;62818;49.394;8.686;2022-12-18T00:44:10;90.90;;;47.93;;
60098;SDS011;62818;49.394;8.686;2022-12-18T00:45:14;89.22;;;48.83;;
60098;SDS011;62818;49.394;8.686;2022-12-18T00:46:15;87.23;;;47.80;;
60098;SDS011;62818;49.394;8.686;2022-12-18T00:47:15;99.13;;;48.87;;
60098;SDS011;62818;49.394;8.686;2022-12-18T00:48:16;96.10;;;50.67;;
60098;SDS011;62818;49.394;8.686;2022-12-18T00:49:21;92.10;;;48.05;;
60098;SDS011;62818;49.394;8.686;2022-12-18T00:50:22;83.87;;;46.87;;
60098;SDS011;62818;49.394;8.686;2022-12-18T00:51:24;93.97;;;48.30;;
60098;SDS011;62818;49.394;8.686;2022-12-18T00:52:25;90.90;;;46.50;;
60098;SDS011;62818;49.394;8.686;2022-12-18T00:53:28;92.07;;;47.15;;
60098;SDS011;62818;49.394;8.686;2022-12-18T00:54:28;84.27;;;44.00;;
60098;SDS011;62818;49.394;8.686;2022-12-18T00:55:29;91.57;;;44.07;;
60098;SDS011;62818;49.394;8.686;2022-12-18T00:56:30;95.57;;;47.90;;
60098;SDS011;62818;49.394;8.686;2022-12-18T00:57:35;85.47;;;45.85;;
60098;SDS011;62818;49.394;8.686;2022-12-18T00:58:39;87.28;;;46.83;;
60098;SDS011;62818;49.394;8.686;2022-12-18T00:59:41;97.03;;;46.38;;
60098;SDS011;62818;49.394;8.686;2022-12-18T01:00:44;88.93;;;44.67;;
60098;SDS011;62818;49.394;8.686;2022-12-18T01:01:49;92.63;;;47.53;;
60098;SDS011;62818;49.394;8.686;2022-12-18T01:02:50;93.20;;;47.95;;
60098;SDS011;62818;49.394;8.686;2022-12-18T01:03:51;96.15;;;47.85;;
60098;SDS011;62818;49.394;8.686;2022-12-18T01:04:51;94.00;;;47.03;;
60098;SDS011;62818;49.394;8.686;2022-12-18T01:05:54;96.37;;;47.33;;
60098;SDS011;62818;49.394;8.686;2022-12-18T01:06:54;98.32;;;46.22;;
60098;SDS011;62818;49.394;8.686;2022-12-18T01:07:55;93.47;;;47.37;;
60098;SDS011;62818;49.394;8.686;2022-12-18T01:08:57;88.18;;;47.67;;
60098;SDS011;62818;49.394;8.686;2022-12-18T01:09:57;93.33;;;47.27;;
60098;SDS011;62818;49.394;8.686;2022-12-18T01:10:58;93.57;;;46.50;;
60098;SDS011;62818;49.394;8.686;2022-12-18T01:12:01;99.20;;;46.30;;
60098;SDS011;62818;49.394;8.686;2022-12-18T01:13:01;90.15;;;47.65;;
60098;SDS011;62818;49.394;8.686;2022-12-18T01:14:02;91.97;;;48.20;;
60098;SDS011;62818;49.394;8.686;2022-12-18T01:15:08;93.47;;;48.70;;
60098;SDS011;62818;49.394;8.686;2022-12-18T01:16:12;89.45;;;47.85;;
60098;SDS011;62818;49.394;8.686;2022-12-18T01:17:14;90.97;;;47.65;;
60098;SDS011;62818;49.394;8.686;2022-12-18T01:18:15;86.53;;;47.03;;
60098;SDS011;62818;49.394;8.686;2022-12-18T01:19:17;90.43;;;47.92;;
60098;SDS011;62818;49.394;8.686;2022-12-18T01:20:18;96.87;;;49.13;;
60098;SDS011;62818;49.394;8.686;2022-12-18T01:21:19;92.57;;;48.30;;
60098;SDS011;62818;49.394;8.686;2022-12-18T01:22:21;89.68;;;47.13;;
60098;SDS011;62818;49.394;8.686;2022-12-18T01:23:21;88.27;;;46.93;;
60098;SDS011;62818;49.394;8.686;2022-12-18T01:24:22;87.03;;;46.70;;
60098;SDS011;62818;49.394;8.686;2022-12-18T01:25:25;99.68;;;48.38;;
60098;SDS011;62818;49.394;8.686;2022-12-18T01:26:25;96.00;;;49.33;;
60098;SDS011;62818;49.394;8.686;2022-12-18T01:27:29;91.78;;;47.70;;
60098;SDS011;62818;49.394;8.686;2022-12-18T01:28:30;89.68;;;45.47;;
60098;SDS011;62818;49.394;8.686;2022-12-18T01:29:33;87.30;;;44.87;;
60098;SDS011;62818;49.394;8.686;2022-12-18T01:30:34;85.18;;;48.22;;
60098;SDS011;62818;49.394;8.686;2022-12-18T01:31:34;93.70;;;45.70;;
60098;SDS011;62818;49.394;8.686;2022-12-18T01:32:37;94.13;;;49.97;;
60098;SDS011;62818;49.394;8.686;2022-12-18T01:33:38;89.67;;;46.93;;
60098;SDS011;62818;49.394;8.686;2022-12-18T01:34:40;88.57;;;48.40;;
60098;SDS011;62818;49.394;8.686;2022-12-18T01:35:43;93.20;;;49.22;;
60098;SDS011;62818;49.394;8.686;2022-12-18T01:36:44;91.33;;;46.13;;
60098;SDS011;62818;49.394;8.686;2022-12-18T01:37:47;90.97;;;47.70;;
60098;SDS011;62818;49.394;8.686;2022-12-18T01:38:53;90.40;;;48.85;;
60098;SDS011;62818;49.394;8.686;2022-12-18T01:39:55;97.70;;;50.88;;
60098;SDS011;62818;49.394;8.686;2022-12-18T01:40:59;83.43;;;45.87;;
60098;SDS011;62818;49.394;8.686;2022-12-18T01:42:05;97.60;;;49.00;;
60098;SDS011;62818;49.394;8.686;2022-12-18T01:43:14;90.70;;;47.50;;
60098;SDS011;62818;49.394;8.686;2022-12-18T01:45:55;94.35;;;49.67;;
60098;SDS011;62818;49.394;8.686;2022-12-18T01:46:59;90.10;;;47.42;;
60098;SDS011;62818;49.394;8.686;2022-12-18T01:48:01;92.35;;;45.50;;
60098;SDS011;62818;49.394;8.686;2022-12-18T01:49:11;94.35;;;50.25;;
60098;SDS011;62818;49.394;8.686;2022-12-18T01:50:18;91.65;;;47.15;;
60098;SDS011;62818;49.394;8.686;2022-12-18T01:51:28;90.82;;;48.75;;
60098;SDS011;62818;49.394;8.686;2022-12-18T01:52:35;92.38;;;48.38;;
60098;SDS011;62818;49.394;8.686;2022-12-18T01:53:37;95.75;;;48.28;;
60098;SDS011;62818;49.394;8.686;2022-12-18T01:54:41;90.90;;;48.88;;
60098;SDS011;62818;49.394;8.686;2022-12-18T01:55:45;90.00;;;46.33;;
60098;SDS011;62818;49.394;8.686;2022-12-18T01:56:52;90.38;;;48.33;;
60098;SDS011;62818;49.394;8.686;2022-12-18T01:57:54;89.40;;;46.97;;
60098;SDS011;62818;49.394;8.686;2022-12-18T01:59:00;92.40;;;48.25;;
60098;SDS011;62818;49.394;8.686;2022-12-18T02:00:10;89.60;;;47.38;;
60098;SDS011;62818;49.394;8.686;2022-12-18T02:01:14;87.07;;;46.42;;
60098;SDS011;62818;49.394;8.686;2022-12-18T02:02:16;86.68;;;46.67;;
60098;SDS011;62818;49.394;8.686;2022-12-18T02:03:17;86.40;;;45.03;;
60098;SDS011;62818;49.394;8.686;2022-12-18T02:04:22;87.63;;;46.60;;
60098;SDS011;62818;49.394;8.686;2022-12-18T02:05:33;87.10;;;46.45;;
60098;SDS011;62818;49.394;8.686;2022-12-18T02:06:46;90.30;;;47.45;;
60098;SDS011;62818;49.394;8.686;2022-12-18T02:08:08;82.30;;;45.03;;
60098;SDS011;62818;49.394;8.686;2022-12-18T02:09:15;88.53;;;44.75;;
60098;SDS011;62818;49.394;8.686;2022-12-18T02:11:52;89.80;;;49.58;;
60098;SDS011;62818;49.394;8.686;2022-12-18T02:13:29;89.15;;;45.60;;
60098;SDS011;62818;49.394;8.686;2022-12-18T02:14:45;90.35;;;47.22;;
60098;SDS011;62818;49.394;8.686;2022-12-18T02:16:18;97.13;;;48.08;;
60098;SDS011;62818;49.394;8.686;2022-12-18T02:17:47;87.80;;;44.95;;
60098;SDS011;62818;49.394;8.686;2022-12-18T02:19:10;85.00;;;47.05;;
60098;SDS011;62818;49.394;8.686;2022-12-18T02:20:41;91.10;;;45.63;;
60098;SDS011;62818;49.394;8.686;2022-12-18T02:21:57;82.68;;;44.47;;
60098;SDS011;62818;49.394;8.686;2022-12-18T02:27:34;88.25;;;46.38;;
60098;SDS011;62818;49.394;8.686;2022-12-18T02:28:46;83.72;;;43.65;;
60098;SDS011;62818;49.394;8.686;2022-12-18T02:29:52;79.50;;;42.40;;
60098;SDS011;62818;49.394;8.686;2022-12-18T02:30:58;79.07;;;43.65;;
60098;SDS011;62818;49.394;8.686;2022-12-18T02:32:06;77.15;;;43.05;;
60098;SDS011;62818;49.394;8.686;2022-12-18T02:33:16;77.43;;;41.75;;
60098;SDS011;62818;49.394;8.686;2022-12-18T02:34:23;80.88;;;44.63;;
60098;SDS011;62818;49.394;8.686;2022-12-18T02:35:30;79.82;;;43.90;;
60098;SDS011;62818;49.394;8.686;2022-12-18T02:36:35;85.10;;;44.85;;
60098;SDS011;62818;49.394;8.686;2022-12-18T02:37:41;86.30;;;46.25;;
60098;SDS011;62818;49.394;8.686;2022-12-18T02:38:47;84.30;;;44.97;;
60098;SDS011;62818;49.394;8.686;2022-12-18T02:39:50;84.75;;;43.15;;
60098;SDS011;62818;49.394;8.686;2022-12-18T02:40:55;89.18;;;45.13;;
60098;SDS011;62818;49.394;8.686;2022-12-18T02:41:57;84.80;;;45.00;;
60098;SDS011;62818;49.394;8.686;2022-12-18T02:43:12;87.30;;;45.13;;
60098;SDS011;62818;49.394;8.686;2022-12-18T02:44:16;88.65;;;47.33;;
60098;SDS011;62818;49.394;8.686;2022-12-18T02:45:16;87.67;;;46.03;;
60098;SDS011;62818;49.394;8.686;2022-12-18T02:47:37;85.97;;;47.00;;
60098;SDS011;62818;49.394;8.686;2022-12-18T02:48:46;89.60;;;46.50;;
60098;SDS011;62818;49.394;8.686;2022-12-18T02:51:33;91.13;;;47.75;;
60098;SDS011;62818;49.394;8.686;2022-12-18T02:52:55;88.47;;;46.55;;
60098;SDS011;62818;49.394;8.686;2022-12-18T02:54:30;91.20;;;47.58;;
60098;SDS011;62818;49.394;8.686;2022-12-18T02:56:59;87.10;;;46.42;;
60098;SDS011;62818;49.394;8.686;2022-12-18T02:59:33;90.57;;;46.10;;
60098;SDS011;62818;49.394;8.686;2022-12-18T03:01:58;93.13;;;46.65;;
60098;SDS011;62818;49.394;8.686;2022-12-18T03:03:30;90.28;;;45.40;;
60098;SDS011;62818;49.394;8.686;2022-12-18T03:05:07;80.30;;;44.20;;
60098;SDS011;62818;49.394;8.686;2022-12-18T03:06:20;94.65;;;46.63;;
60098;SDS011;62818;49.394;8.686;2022-12-18T03:08:52;86.80;;;44.10;;
60098;SDS011;62818;49.394;8.686;2022-12-18T03:09:59;95.47;;;48.17;;
60098;SDS011;62818;49.394;8.686;2022-12-18T03:11:10;90.53;;;46.50;;
60098;SDS011;62818;49.394;8.686;2022-12-18T03:13:44;81.75;;;45.22;;
60098;SDS011;62818;49.394;8.686;2022-12-18T03:16:20;84.28;;;44.00;;
60098;SDS011;62818;49.394;8.686;2022-12-18T03:17:32;89.25;;;46.22;;
60098;SDS011;62818;49.394;8.686;2022-12-18T03:18:38;83.18;;;44.08;;
60098;SDS011;62818;49.394;8.686;2022-12-18T03:20:07;87.47;;;45.70;;
60098;SDS011;62818;49.394;8.686;2022-12-18T03:21:14;85.13;;;44.78;;
60098;SDS011;62818;49.394;8.686;2022-12-18T03:22:25;88.63;;;47.25;;
60098;SDS011;62818;49.394;8.686;2022-12-18T03:23:33;86.35;;;46.15;;
60098;SDS011;62818;49.394;8.686;2022-12-18T03:24:40;88.75;;;45.72;;
60098;SDS011;62818;49.394;8.686;2022-12-18T03:25:46;91.50;;;46.75;;
60098;SDS011;62818;49.394;8.686;2022-12-18T03:26:53;88.72;;;47.47;;
60098;SDS011;62818;49.394;8.686;2022-12-18T03:28:01;83.70;;;44.97;;
60098;SDS011;62818;49.394;8.686;2022-12-18T03:29:09;87.47;;;47.47;;
60098;SDS011;62818;49.394;8.686;2022-12-18T03:30:37;85.82;;;45.63;;
60098;SDS011;62818;49.394;8.686;2022-12-18T03:31:41;84.10;;;45.60;;
60098;SDS011;62818;49.394;8.686;2022-12-18T03:32:53;82.03;;;46.13;;
60098;SDS011;62818;49.394;8.686;2022-12-18T03:34:24;86.53;;;43.85;;
60098;SDS011;62818;49.394;8.686;2022-12-18T03:35:34;83.03;;;44.33;;
60098;SDS011;62818;49.394;8.686;2022-12-18T03:36:42;85.97;;;45.85;;
60098;SDS011;62818;49.394;8.686;2022-12-18T03:37:42;87.27;;;44.97;;
60098;SDS011;62818;49.394;8.686;2022-12-18T03:38:43;81.37;;;43.53;;
60098;SDS011;62818;49.394;8.686;2022-12-18T03:39:44;87.83;;;46.13;;
60098;SDS011;62818;49.394;8.686;2022-12-18T03:43:39;86.38;;;42.95;;
60098;SDS011;62818;49.394;8.686;2022-12-18T03:46:36;77.90;;;44.72;;
60098;SDS011;62818;49.394;8.686;2022-12-18T03:49:14;84.07;;;45.80;;
60098;SDS011;62818;49.394;8.686;2022-12-18T03:50:48;81.72;;;44.97;;
60098;SDS011;62818;49.394;8.686;2022-12-18T03:52:03;83.78;;;44.33;;
60098;SDS011;62818;49.394;8.686;2022-12-18T03:53:22;84.50;;;44.65;;
60098;SDS011;62818;49.394;8.686;2022-12-18T03:54:25;80.70;;;44.88;;
60098;SDS011;62818;49.394;8.686;2022-12-18T03:55:30;77.70;;;43.60;;
60098;SDS011;62818;49.394;8.686;2022-12-18T03:56:37;84.55;;;45.78;;
60098;SDS011;62818;49.394;8.686;2022-12-18T03:57:44;77.95;;;44.00;;
60098;SDS011;62818;49.394;8.686;2022-12-18T03:58:47;75.35;;;41.45;;
60098;SDS011;62818;49.394;8.686;2022-12-18T03:59:52;84.00;;;43.65;;
60098;SDS011;62818;49.394;8.686;2022-12-18T04:01:03;81.72;;;45.63;;
60098;SDS011;62818;49.394;8.686;2022-12-18T04:02:09;77.53;;;41.78;;
60098;SDS011;62818;49.394;8.686;2022-12-18T04:03:11;73.15;;;40.13;;
60098;SDS011;62818;49.394;8.686;2022-12-18T04:04:15;79.78;;;43.90;;
60098;SDS011;62818;49.394;8.686;2022-12-18T04:05:21;77.25;;;42.33;;
60098;SDS011;62818;49.394;8.686;2022-12-18T04:06:25;78.55;;;44.03;;
60098;SDS011;62818;49.394;8.686;2022-12-18T04:07:28;74.35;;;42.58;;
60098;SDS011;62818;49.394;8.686;2022-12-18T04:08:30;78.43;;;44.08;;
60098;SDS011;62818;49.394;8.686;2022-12-18T04:09:33;88.15;;;45.25;;
60098;SDS011;62818;49.394;8.686;2022-12-18T04:10:36;77.82;;;43.28;;
60098;SDS011;62818;49.394;8.686;2022-12-18T04:11:37;74.68;;;42.35;;
60098;SDS011;62818;49.394;8.686;2022-12-18T04:12:39;81.75;;;42.25;;
60098;SDS011;62818;49.394;8.686;2022-12-18T04:13:41;78.75;;;41.97;;
60098;SDS011;62818;49.394;8.686;2022-12-18T04:14:43;96.80;;;45.38;;
60098;SDS011;62818;49.394;8.686;2022-12-18T04:15:46;87.53;;;42.97;;
60098;SDS011;62818;49.394;8.686;2022-12-18T04:16:46;87.95;;;45.80;;
60098;SDS011;62818;49.394;8.686;2022-12-18T04:17:48;85.27;;;44.93;;
60098;SDS011;62818;49.394;8.686;2022-12-18T04:18:50;83.97;;;45.70;;
60098;SDS011;62818;49.394;8.686;2022-12-18T04:19:50;79.80;;;42.80;;
60098;SDS011;62818;49.394;8.686;2022-12-18T04:20:51;77.40;;;42.47;;
60098;SDS011;62818;49.394;8.686;2022-12-18T04:21:51;84.27;;;44.20;;
60098;SDS011;62818;49.394;8.686;2022-12-18T04:22:52;86.20;;;43.87;;
60098;SDS011;62818;49.394;8.686;2022-12-18T04:23:52;78.63;;;44.30;;
60098;SDS011;62818;49.394;8.686;2022-12-18T04:24:55;81.82;;;42.75;;
60098;SDS011;62818;49.394;8.686;2022-12-18T04:25:55;81.70;;;44.90;;
60098;SDS011;62818;49.394;8.686;2022-12-18T04:26:56;82.10;;;43.50;;
60098;SDS011;62818;49.394;8.686;2022-12-18T04:27:58;85.65;;;44.35;;
60098;SDS011;62818;49.394;8.686;2022-12-18T04:28:59;84.20;;;44.53;;
60098;SDS011;62818;49.394;8.686;2022-12-18T04:29:59;82.00;;;45.00;;
60098;SDS011;62818;49.394;8.686;2022-12-18T04:31:01;85.65;;;43.45;;
60098;SDS011;62818;49.394;8.686;2022-12-18T04:32:01;79.35;;;44.03;;
60098;SDS011;62818;49.394;8.686;2022-12-18T04:33:02;80.53;;;44.60;;
60098;SDS011;62818;49.394;8.686;2022-12-18T04:34:07;82.75;;;45.05;;
60098;SDS011;62818;49.394;8.686;2022-12-18T04:35:08;78.33;;;44.10;;
60098;SDS011;62818;49.394;8.686;2022-12-18T04:36:16;85.03;;;44.35;;
60098;SDS011;62818;49.394;8.686;2022-12-18T04:37:16;79.47;;;44.10;;
60098;SDS011;62818;49.394;8.686;2022-12-18T04:38:17;76.00;;;42.07;;
60098;SDS011;62818;49.394;8.686;2022-12-18T04:39:19;82.25;;;45.03;;
60098;SDS011;62818;49.394;8.686;2022-12-18T04:40:20;84.07;;;45.10;;
60098;SDS011;62818;49.394;8.686;2022-12-18T04:41:21;78.70;;;43.78;;
60098;SDS011;62818;49.394;8.686;2022-12-18T04:42:21;82.77;;;45.23;;
60098;SDS011;62818;49.394;8.686;2022-12-18T04:43:22;80.70;;;45.57;;
60098;SDS011;62818;49.394;8.686;2022-12-18T04:44:22;80.50;;;44.07;;
60098;SDS011;62818;49.394;8.686;2022-12-18T04:45:23;84.13;;;45.47;;
60098;SDS011;62818;49.394;8.686;2022-12-18T04:46:23;83.47;;;44.80;;
60098;SDS011;62818;49.394;8.686;2022-12-18T04:47:26;82.40;;;44.50;;
60098;SDS011;62818;49.394;8.686;2022-12-18T04:48:29;79.97;;;44.38;;
60098;SDS011;62818;49.394;8.686;2022-12-18T04:49:29;73.03;;;40.20;;
60098;SDS011;62818;49.394;8.686;2022-12-18T04:50:30;76.97;;;42.90;;
60098;SDS011;62818;49.394;8.686;2022-12-18T04:51:31;75.68;;;43.30;;
60098;SDS011;62818;49.394;8.686;2022-12-18T04:52:32;76.07;;;41.50;;
60098;SDS011;62818;49.394;8.686;2022-12-18T04:53:33;76.57;;;41.47;;
60098;SDS011;62818;49.394;8.686;2022-12-18T04:54:34;80.40;;;42.72;;
60098;SDS011;62818;49.394;8.686;2022-12-18T04:55:35;78.03;;;42.80;;
60098;SDS011;62818;49.394;8.686;2022-12-18T04:56:37;78.32;;;43.33;;
60098;SDS011;62818;49.394;8.686;2022-12-18T04:57:40;81.85;;;43.42;;
60098;SDS011;62818;49.394;8.686;2022-12-18T04:58:42;79.57;;;41.33;;
60098;SDS011;62818;49.394;8.686;2022-12-18T04:59:45;80.32;;;44.28;;
60098;SDS011;62818;49.394;8.686;2022-12-18T05:00:46;78.57;;;42.37;;
60098;SDS011;62818;49.394;8.686;2022-12-18T05:01:47;77.40;;;42.08;;
60098;SDS011;62818;49.394;8.686;2022-12-18T05:02:49;81.30;;;44.85;;
60098;SDS011;62818;49.394;8.686;2022-12-18T05:03:52;79.13;;;42.58;;
60098;SDS011;62818;49.394;8.686;2022-12-18T05:04:53;85.33;;;44.77;;
60098;SDS011;62818;49.394;8.686;2022-12-18T05:05:56;83.80;;;44.37;;
60098;SDS011;62818;49.394;8.686;2022-12-18T05:06:59;80.35;;;43.90;;
60098;SDS011;62818;49.394;8.686;2022-12-18T05:08:00;78.47;;;42.97;;
60098;SDS011;62818;49.394;8.686;2022-12-18T05:09:00;79.87;;;42.80;;
60098;SDS011;62818;49.394;8.686;2022-12-18T05:10:01;78.05;;;43.42;;
60098;SDS011;62818;49.394;8.686;2022-12-18T05:11:04;85.10;;;43.70;;
60098;SDS011;62818;49.394;8.686;2022-12-18T05:12:08;85.93;;;45.67;;
60098;SDS011;62818;49.394;8.686;2022-12-18T05:13:09;83.20;;;45.07;;
60098;SDS011;62818;49.394;8.686;2022-12-18T05:14:09;79.30;;;43.20;;
60098;SDS011;62818;49.394;8.686;2022-12-18T05:15:10;85.10;;;45.17;;
60098;SDS011;62818;49.394;8.686;2022-12-18T05:16:13;86.18;;;46.17;;
60098;SDS011;62818;49.394;8.686;2022-12-18T05:17:16;83.93;;;44.15;;
60098;SDS011;62818;49.394;8.686;2022-12-18T05:18:19;87.90;;;44.25;;
60098;SDS011;62818;49.394;8.686;2022-12-18T05:19:20;86.15;;;43.80;;
60098;SDS011;62818;49.394;8.686;2022-12-18T05:20:23;85.90;;;44.25;;
60098;SDS011;62818;49.394;8.686;2022-12-18T05:21:24;79.70;;;42.60;;
60098;SDS011;62818;49.394;8.686;2022-12-18T05:22:27;81.30;;;44.15;;
60098;SDS011;62818;49.394;8.686;2022-12-18T05:23:29;87.05;;;44.63;;
60098;SDS011;62818;49.394;8.686;2022-12-18T05:24:29;80.80;;;42.63;;
60098;SDS011;62818;49.394;8.686;2022-12-18T05:25:30;84.47;;;42.17;;
60098;SDS011;62818;49.394;8.686;2022-12-18T05:26:30;76.60;;;41.80;;
60098;SDS011;62818;49.394;8.686;2022-12-18T05:27:31;80.83;;;43.67;;
60098;SDS011;62818;49.394;8.686;2022-12-18T05:28:32;84.70;;;41.67;;
60098;SDS011;62818;49.394;8.686;2022-12-18T05:29:35;82.80;;;42.70;;
60098;SDS011;62818;49.394;8.686;2022-12-18T05:30:36;86.37;;;44.47;;
60098;SDS011;62818;49.394;8.686;2022-12-18T05:31:36;83.20;;;43.30;;
60098;SDS011;62818;49.394;8.686;2022-12-18T05:32:37;84.77;;;42.73;;
60098;SDS011;62818;49.394;8.686;2022-12-18T05:33:43;92.60;;;43.33;;
60098;SDS011;62818;49.394;8.686;2022-12-18T05:34:43;97.28;;;44.15;;
60098;SDS011;62818;49.394;8.686;2022-12-18T05:35:44;86.20;;;44.13;;
60098;SDS011;62818;49.394;8.686;2022-12-18T05:36:53;84.00;;;45.03;;
60098;SDS011;62818;49.394;8.686;2022-12-18T05:37:53;85.83;;;42.43;;
60098;SDS011;62818;49.394;8.686;2022-12-18T05:38:54;85.27;;;43.13;;
60098;SDS011;62818;49.394;8.686;2022-12-18T05:40:00;81.97;;;42.40;;
60098;SDS011;62818;49.394;8.686;2022-12-18T05:41:01;80.75;;;43.00;;
60098;SDS011;62818;49.394;8.686;2022-12-18T05:42:06;79.65;;;44.38;;
60098;SDS011;62818;49.394;8.686;2022-12-18T05:43:09;83.18;;;43.40;;
60098;SDS011;62818;49.394;8.686;2022-12-18T05:44:10;87.25;;;43.53;;
60098;SDS011;62818;49.394;8.686;2022-12-18T05:45:11;89.10;;;45.40;;
60098;SDS011;62818;49.394;8.686;2022-12-18T05:46:17;89.45;;;45.30;;
60098;SDS011;62818;49.394;8.686;2022-12-18T05:47:20;84.68;;;45.15;;
60098;SDS011;62818;49.394;8.686;2022-12-18T05:48:21;82.18;;;45.00;;
60098;SDS011;62818;49.394;8.686;2022-12-18T05:49:24;87.18;;;46.40;;
60098;SDS011;62818;49.394;8.686;2022-12-18T05:50:25;77.93;;;42.93;;
60098;SDS011;62818;49.394;8.686;2022-12-18T05:51:30;88.50;;;44.50;;
60098;SDS011;62818;49.394;8.686;2022-12-18T05:52:32;80.03;;;43.78;;
60098;SDS011;62818;49.394;8.686;2022-12-18T05:53:36;90.10;;;43.13;;
60098;SDS011;62818;49.394;8.686;2022-12-18T05:55:39;87.38;;;45.13;;
60098;SDS011;62818;49.394;8.686;2022-12-18T05:56:43;83.85;;;44.35;;
60098;SDS011;62818;49.394;8.686;2022-12-18T05:57:43;83.23;;;42.57;;
60098;SDS011;62818;49.394;8.686;2022-12-18T05:58:44;87.47;;;44.10;;
60098;SDS011;62818;49.394;8.686;2022-12-18T06:00:46;91.47;;;44.75;;
60098;SDS011;62818;49.394;8.686;2022-12-18T06:01:46;87.13;;;44.00;;
60098;SDS011;62818;49.394;8.686;2022-12-18T06:02:47;80.60;;;42.40;;
60098;SDS011;62818;49.394;8.686;2022-12-18T06:03:50;92.65;;;44.33;;
60098;SDS011;62818;49.394;8.686;2022-12-18T06:04:51;89.03;;;45.53;;
60098;SDS011;62818;49.394;8.686;2022-12-18T06:05:51;90.83;;;43.27;;
60098;SDS011;62818;49.394;8.686;2022-12-18T06:06:54;81.30;;;42.33;;
60098;SDS011;62818;49.394;8.686;2022-12-18T06:07:57;87.97;;;45.67;;
60098;SDS011;62818;49.394;8.686;2022-12-18T06:08:58;80.53;;;43.23;;
60098;SDS011;62818;49.394;8.686;2022-12-18T06:09:59;82.82;;;44.67;;
60098;SDS011;62818;49.394;8.686;2022-12-18T06:10:59;83.37;;;43.40;;
60098;SDS011;62818;49.394;8.686;2022-12-18T06:12:00;85.67;;;43.00;;
60098;SDS011;62818;49.394;8.686;2022-12-18T06:13:00;85.07;;;45.47;;
60098;SDS011;62818;49.394;8.686;2022-12-18T06:14:01;84.53;;;44.20;;
60098;SDS011;62818;49.394;8.686;2022-12-18T06:15:04;127.15;;;45.42;;
60098;SDS011;62818;49.394;8.686;2022-12-18T06:16:05;89.07;;;43.83;;
60098;SDS011;62818;49.394;8.686;2022-12-18T06:17:09;97.28;;;46.35;;
60098;SDS011;62818;49.394;8.686;2022-12-18T06:18:09;97.55;;;48.47;;
60098;SDS011;62818;49.394;8.686;2022-12-18T06:19:12;112.00;;;46.30;;
60098;SDS011;62818;49.394;8.686;2022-12-18T06:20:15;99.00;;;46.03;;
60098;SDS011;62818;49.394;8.686;2022-12-18T06:21:21;96.03;;;46.97;;
60098;SDS011;62818;49.394;8.686;2022-12-18T06:22:24;102.78;;;45.42;;
60098;SDS011;62818;49.394;8.686;2022-12-18T06:23:29;82.00;;;44.00;;
60098;SDS011;62818;49.394;8.686;2022-12-18T06:24:32;90.38;;;46.20;;
60098;SDS011;62818;49.394;8.686;2022-12-18T06:25:38;90.07;;;47.55;;
60098;SDS011;62818;49.394;8.686;2022-12-18T06:26:41;98.00;;;45.65;;
60098;SDS011;62818;49.394;8.686;2022-12-18T06:27:42;89.07;;;44.47;;
60098;SDS011;62818;49.394;8.686;2022-12-18T06:28:42;86.50;;;44.53;;
60098;SDS011;62818;49.394;8.686;2022-12-18T06:29:45;89.15;;;44.33;;
60098;SDS011;62818;49.394;8.686;2022-12-18T06:30:49;79.28;;;43.33;;
60098;SDS011;62818;49.394;8.686;2022-12-18T06:31:52;81.35;;;42.50;;
60098;SDS011;62818;49.394;8.686;2022-12-18T06:32:53;87.37;;;44.13;;
60098;SDS011;62818;49.394;8.686;2022-12-18T06:33:56;87.17;;;44.57;;
60098;SDS011;62818;49.394;8.686;2022-12-18T06:34:59;81.47;;;43.25;;
60098;SDS011;62818;49.394;8.686;2022-12-18T06:36:00;87.72;;;43.47;;
60098;SDS011;62818;49.394;8.686;2022-12-18T06:37:04;82.47;;;44.03;;
60098;SDS011;62818;49.394;8.686;2022-12-18T06:38:05;74.67;;;40.10;;
60098;SDS011;62818;49.394;8.686;2022-12-18T06:39:05;87.30;;;44.47;;
60098;SDS011;62818;49.394;8.686;2022-12-18T06:40:06;78.17;;;39.47;;
60098;SDS011;62818;49.394;8.686;2022-12-18T06:41:11;83.32;;;43.20;;
60098;SDS011;62818;49.394;8.686;2022-12-18T06:42:15;82.70;;;42.92;;
60098;SDS011;62818;49.394;8.686;2022-12-18T06:43:15;80.53;;;44.27;;
60098;SDS011;62818;49.394;8.686;2022-12-18T06:44:16;85.87;;;42.53;;